CheckWX is a tool to help pilots better visualize weather data.  It is not intended as a substitute for an official pre-flight weather briefing.

16:17:14 UTC

KBIH TAF
Bishop Airport
Bishop, California, USA
KBIH 181122Z 1812/1912 31006KT P6SM BKN250 FM181900 VRB05KT P6SM SCT150 BKN250 FM190400 31006KT P6SM SCT150 BKN250

Mar-18@
12:00 UTC

Mar-18 @ 12:00 UTC

Mar-18@
19:00 UTC

Mar-18 @ 19:00 UTC

KBIH 181122Z 1812/1912 31006KT P6SM BKN250
Wind
  • 310° at 6 KTS
Cloud Levels
  • Broken at 25,000' AGL

Mar-18@
19:00 UTC

Mar-18 @ 19:00 UTC

Mar-19@
04:00 UTC

Mar-19 @ 04:00 UTC

FM181900 VRB05KT P6SM SCT150 BKN250

From

From Standard forecast or significant change

Wind
  • Variable at 5 KTS
Cloud Levels
  • Scattered at 15,000' AGL
  • Broken at 25,000' AGL

Mar-19@
04:00 UTC

Mar-19 @ 04:00 UTC

Mar-19@
12:00 UTC

Mar-19 @ 12:00 UTC

FM190400 31006KT P6SM SCT150 BKN250

From

From Standard forecast or significant change

Wind
  • 310° at 6 KTS
Cloud Levels
  • Scattered at 15,000' AGL
  • Broken at 25,000' AGL